Time;durP1;ratioP1;P1;durP2;ratioP2;P2;SDS_P1;SDS_P2;PMS_P1;PMS_P2;Temp;Humidity;BMP_temperature;BMP_pressure;BME280_temperature;BME280_humidity;BME280_pressure;Samples;Min_cycle;Max_cycle;Signal;HPM_P1;HPM_P2
2022/09/06 00:00:41;;;;;;;8.07;7.37;;;;;;;20.54;58.62;101085.84;5048493;28;20205;-87
2022/09/06 00:03:08;;;;;;;8.70;7.83;;;;;;;20.50;58.57;101081.75;5049729;28;20200;-86
2022/09/06 00:05:36;;;;;;;9.17;8.37;;;;;;;20.48;58.77;101081.03;5053605;28;20204;-87
2022/09/06 00:08:05;;;;;;;8.73;7.80;;;;;;;20.45;58.96;101079.47;5058959;28;20223;-85
2022/09/06 00:10:33;;;;;;;8.90;8.10;;;;;;;20.42;59.04;101071.66;5050625;28;20234;-86
2022/09/06 00:13:05;;;;;;;8.37;7.67;;;;;;;20.40;59.26;101072.84;5054503;28;20221;-86
2022/09/06 00:15:33;;;;;;;8.77;8.00;;;;;;;20.36;59.34;101077.69;5049429;28;20204;-86
2022/09/06 00:18:00;;;;;;;7.77;7.07;;;;;;;20.32;59.21;101087.06;5051862;28;20202;-86
2022/09/06 00:20:27;;;;;;;8.57;7.73;;;;;;;20.29;59.59;101092.75;5052809;28;20230;-86
2022/09/06 00:22:57;;;;;;;9.23;8.33;;;;;;;20.22;59.61;101091.69;5056634;28;20235;-86
2022/09/06 00:25:24;;;;;;;9.13;8.13;;;;;;;20.20;59.68;101093.69;5054770;28;20219;-86
2022/09/06 00:27:54;;;;;;;8.53;7.83;;;;;;;20.18;59.83;101097.53;5048253;28;20640;-85
2022/09/06 00:30:21;;;;;;;9.93;8.03;;;;;;;20.15;60.11;101097.81;5052908;28;20709;-85
2022/09/06 00:32:48;;;;;;;8.47;7.60;;;;;;;20.13;60.14;101086.28;5054297;28;20198;-85
2022/09/06 00:35:15;;;;;;;8.17;7.47;;;;;;;20.10;60.33;101084.72;5057266;28;20218;-85
2022/09/06 00:37:41;;;;;;;8.70;7.90;;;;;;;20.08;60.44;101078.63;5052293;28;20265;-85
2022/09/06 00:40:09;;;;;;;8.70;7.80;;;;;;;20.03;60.42;101076.38;5055397;28;20730;-86
2022/09/06 00:42:35;;;;;;;8.93;8.07;;;;;;;20.01;60.57;101077.53;5053921;28;20225;-86
2022/09/06 00:45:02;;;;;;;8.67;7.77;;;;;;;19.98;60.71;101091.31;5053204;28;20202;-85
2022/09/06 00:47:30;;;;;;;8.97;7.90;;;;;;;19.96;60.61;101090.63;5047940;28;20228;-85
2022/09/06 00:49:59;;;;;;;8.50;7.70;;;;;;;19.93;60.57;101097.16;5050627;28;20221;-87
2022/09/06 00:52:27;;;;;;;7.87;7.17;;;;;;;19.91;60.84;101099.16;5054134;28;20203;-86
2022/09/06 00:54:55;;;;;;;9.10;8.30;;;;;;;19.91;60.91;101103.72;5058168;28;20641;-86
2022/09/06 00:57:25;;;;;;;9.10;8.30;;;;;;;19.90;60.75;101094.75;5055673;28;20574;-85
2022/09/06 00:59:54;;;;;;;7.90;7.30;;;;;;;19.89;61.07;101097.59;5052591;28;20238;-86
2022/09/06 01:02:21;;;;;;;8.67;7.77;;;;;;;19.87;61.01;101092.38;5051983;28;20213;-86
2022/09/06 01:04:51;;;;;;;8.70;8.00;;;;;;;19.86;61.11;101100.63;5050251;28;20688;-86
2022/09/06 01:07:29;;;;;;;8.67;7.87;;;;;;;19.85;61.22;101102.47;5055058;28;20779;-86
2022/09/06 01:10:13;;;;;;;8.83;8.03;;;;;;;19.85;61.14;101099.75;5052780;28;20218;-84
2022/09/06 01:12:50;;;;;;;14.87;8.07;;;;;;;19.83;61.15;101096.34;5051935;28;20205;-85
2022/09/06 01:15:40;;;;;;;8.60;7.83;;;;;;;19.85;61.25;101096.22;5051769;28;20345;-85
2022/09/06 01:18:20;;;;;;;9.40;8.50;;;;;;;19.84;61.35;101099.91;5052362;28;20201;-85
2022/09/06 01:21:03;;;;;;;8.60;7.80;;;;;;;19.83;61.25;101100.91;5052175;28;20202;-85
2022/09/06 01:23:55;;;;;;;8.13;7.33;;;;;;;19.83;61.35;101088.25;5053037;28;20219;-85
2022/09/06 01:26:57;;;;;;;8.57;7.87;;;;;;;19.82;61.30;101081.13;5049877;28;20200;-85
2022/09/06 01:29:32;;;;;;;9.27;7.70;;;;;;;19.80;61.54;101077.72;5053888;28;20228;-85
2022/09/06 01:32:07;;;;;;;9.23;8.50;;;;;;;19.79;62.04;101067.91;5048523;28;20204;-85
2022/09/06 01:34:38;;;;;;;10.70;9.70;;;;;;;19.78;62.89;101066.19;5051452;28;20571;-86
2022/09/06 01:37:11;;;;;;;9.67;8.70;;;;;;;19.77;63.06;101062.66;5051720;28;20304;-85
2022/09/06 01:39:39;;;;;;;9.57;8.70;;;;;;;19.76;63.46;101063.63;5054139;28;20711;-85
2022/09/06 01:42:11;;;;;;;9.37;8.47;;;;;;;19.73;63.61;101063.06;5049508;28;20213;-86
2022/09/06 01:44:42;;;;;;;9.70;8.90;;;;;;;19.68;63.91;101050.03;5051866;28;20673;-86
2022/09/06 01:47:21;;;;;;;10.13;9.07;;;;;;;19.63;64.34;101049.59;5052691;28;20678;-85
2022/09/06 01:50:00;;;;;;;10.10;9.10;;;;;;;19.57;64.92;101050.16;5056505;28;20931;-84
2022/09/06 01:52:34;;;;;;;10.33;9.10;;;;;;;19.50;65.08;101053.63;5049147;28;20542;-86
2022/09/06 01:55:13;;;;;;;10.03;9.03;;;;;;;19.42;65.29;101054.28;5055330;28;20211;-86
2022/09/06 01:58:02;;;;;;;9.23;8.43;;;;;;;19.33;65.57;101050.63;5051301;28;20203;-86
2022/09/06 02:00:40;;;;;;;9.60;8.80;;;;;;;19.24;65.90;101048.78;5053004;28;20226;-86
2022/09/06 02:03:11;;;;;;;9.03;8.13;;;;;;;19.17;66.22;101052.19;5050531;28;20214;-87
2022/09/06 02:05:41;;;;;;;9.43;8.47;;;;;;;19.07;66.63;101046.78;5050050;28;20222;-85
2022/09/06 02:08:14;;;;;;;9.27;8.47;;;;;;;19.01;66.72;101058.13;5052086;28;20604;-86
2022/09/06 02:10:45;;;;;;;10.27;9.17;;;;;;;18.92;66.74;101043.66;5056686;28;20200;-87
2022/09/06 02:13:15;;;;;;;9.90;9.00;;;;;;;18.87;67.13;101043.22;5053771;28;20204;-85
2022/09/06 02:15:49;;;;;;;10.07;9.13;;;;;;;18.82;67.17;101045.47;5051104;28;20211;-86
2022/09/06 02:18:19;;;;;;;9.23;8.40;;;;;;;18.76;67.39;101040.66;5054272;28;20200;-86
2022/09/06 02:20:50;;;;;;;9.97;9.03;;;;;;;18.71;67.21;101045.63;5053886;28;20213;-86
2022/09/06 02:23:20;;;;;;;9.37;8.57;;;;;;;18.67;67.51;101052.28;5057492;28;20289;-86
2022/09/06 02:25:52;;;;;;;8.83;8.03;;;;;;;18.63;67.52;101054.41;5054358;28;20241;-87
2022/09/06 02:28:19;;;;;;;9.07;8.37;;;;;;;18.62;67.63;101058.13;5054591;28;20266;-86
2022/09/06 02:30:50;;;;;;;9.07;8.27;;;;;;;18.61;67.49;101053.72;5057087;28;20252;-85
2022/09/06 02:33:25;;;;;;;10.50;9.50;;;;;;;18.60;67.83;101054.72;5054774;28;20252;-87
2022/09/06 02:35:53;;;;;;;11.40;8.80;;;;;;;18.61;68.07;101052.88;5047268;28;20207;-86
2022/09/06 02:38:22;;;;;;;10.10;9.20;;;;;;;18.60;68.09;101049.31;5053703;28;20206;-86
2022/09/06 02:40:50;;;;;;;9.53;8.63;;;;;;;18.58;68.04;101048.56;5050188;28;20208;-86
2022/09/06 02:43:17;;;;;;;9.60;8.70;;;;;;;18.57;67.87;101036.06;5052420;28;20281;-87
2022/09/06 02:45:44;;;;;;;9.60;8.70;;;;;;;18.55;67.78;101038.03;5057665;28;20311;-87
2022/09/06 02:48:11;;;;;;;8.23;7.53;;;;;;;18.52;67.58;101032.91;5051687;28;20606;-86
2022/09/06 02:50:38;;;;;;;8.90;7.90;;;;;;;18.51;67.38;101030.34;5053769;28;20604;-86
2022/09/06 02:53:07;;;;;;;7.90;7.30;;;;;;;18.49;67.17;101030.50;5050450;28;20323;-86
2022/09/06 02:55:34;;;;;;;8.23;7.43;;;;;;;18.47;67.10;101035.16;5046226;28;20212;-86
2022/09/06 02:58:01;;;;;;;8.93;8.03;;;;;;;18.46;66.83;101033.47;5047610;28;20210;-85
2022/09/06 03:00:29;;;;;;;7.90;7.20;;;;;;;18.45;66.76;101034.47;5053645;28;20242;-85
2022/09/06 03:02:55;;;;;;;7.93;7.23;;;;;;;18.44;66.44;101040.88;5053863;28;20205;-86
2022/09/06 03:05:24;;;;;;;9.07;7.60;;;;;;;18.43;66.20;101051.78;5048897;28;20588;-85
2022/09/06 03:07:51;;;;;;;8.40;7.60;;;;;;;18.40;66.07;101047.53;5045110;28;20222;-85
2022/09/06 03:10:18;;;;;;;8.37;7.57;;;;;;;18.39;66.22;101043.13;5050672;28;20304;-86
2022/09/06 03:12:45;;;;;;;8.43;7.63;;;;;;;18.35;65.70;101047.94;5054863;28;20220;-86
2022/09/06 03:15:12;;;;;;;10.00;7.57;;;;;;;18.31;65.39;101041.09;5050734;28;20601;-86
2022/09/06 03:17:39;;;;;;;8.33;7.53;;;;;;;18.29;65.45;101042.22;5052828;28;20575;-86
2022/09/06 03:20:08;;;;;;;7.50;6.80;;;;;;;18.25;65.34;101055.16;5042680;28;20226;-86
2022/09/06 03:22:36;;;;;;;8.57;6.83;;;;;;;18.20;65.35;101056.53;5052435;28;20209;-86
2022/09/06 03:25:03;;;;;;;7.87;7.17;;;;;;;18.16;65.25;101041.63;5050731;28;20215;-87
2022/09/06 03:27:29;;;;;;;6.97;6.40;;;;;;;18.13;65.23;101044.56;5053946;28;20222;-86
2022/09/06 03:29:56;;;;;;;8.30;7.43;;;;;;;18.08;65.07;101041.47;5053545;28;20237;-86
2022/09/06 03:32:23;;;;;;;7.50;6.50;;;;;;;18.04;65.09;101039.03;5048925;28;20214;-86
2022/09/06 03:34:49;;;;;;;7.90;7.20;;;;;;;18.00;65.12;101029.50;5047334;28;20211;-86
2022/09/06 03:37:16;;;;;;;7.93;7.13;;;;;;;17.98;65.11;101026.09;5051441;28;20573;-85
2022/09/06 03:39:44;;;;;;;7.50;6.87;;;;;;;17.95;65.11;101031.75;5058876;28;20313;-87
2022/09/06 03:42:10;;;;;;;6.83;6.13;;;;;;;17.91;65.02;101024.94;5048144;28;20217;-87
2022/09/06 03:44:37;;;;;;;7.47;6.77;;;;;;;17.88;64.93;101035.13;5052118;28;20209;-87
2022/09/06 03:47:04;;;;;;;7.33;6.60;;;;;;;17.84;64.77;101031.84;5051035;28;20218;-86
2022/09/06 03:49:30;;;;;;;7.40;6.77;;;;;;;17.82;64.46;101033.81;5043374;28;20225;-85
2022/09/06 03:51:57;;;;;;;7.37;6.60;;;;;;;17.81;64.75;101042.03;5053981;28;20201;-86
2022/09/06 03:54:24;;;;;;;7.53;6.77;;;;;;;17.77;64.85;101040.59;5049240;28;20675;-86
2022/09/06 03:56:52;;;;;;;8.23;7.30;;;;;;;17.75;64.81;101042.56;5043532;28;20204;-86
2022/09/06 03:59:18;;;;;;;7.67;6.87;;;;;;;17.72;64.76;101054.47;5051979;28;20223;-86
2022/09/06 04:01:45;;;;;;;6.70;6.07;;;;;;;17.70;64.75;101056.44;5047743;28;21153;-86
2022/09/06 04:04:11;;;;;;;7.37;6.67;;;;;;;17.67;64.90;101054.00;5055752;28;20206;-86
2022/09/06 04:06:38;;;;;;;7.00;6.40;;;;;;;17.65;64.97;101053.28;5056646;28;20208;-86
2022/09/06 04:09:04;;;;;;;7.43;6.73;;;;;;;17.61;64.87;101047.28;5053826;28;20225;-86
2022/09/06 04:11:31;;;;;;;7.53;6.83;;;;;;;17.61;64.93;101041.03;5051724;28;20203;-85
2022/09/06 04:13:59;;;;;;;8.00;7.20;;;;;;;17.60;64.91;101039.31;5057050;28;20299;-85
2022/09/06 04:16:25;;;;;;;7.93;7.23;;;;;;;17.57;64.98;101034.19;5052181;28;20222;-84
2022/09/06 04:18:52;;;;;;;7.40;6.70;;;;;;;17.54;65.01;101038.03;5054789;28;20244;-85
2022/09/06 04:21:18;;;;;;;7.87;7.07;;;;;;;17.52;65.18;101034.63;5053139;28;20213;-85
2022/09/06 04:23:45;;;;;;;6.67;6.07;;;;;;;17.51;65.34;101037.44;5054886;28;20221;-86
2022/09/06 04:26:12;;;;;;;7.37;6.67;;;;;;;17.49;65.29;101037.56;5052079;28;20560;-85
2022/09/06 04:28:38;;;;;;;8.53;6.93;;;;;;;17.48;65.24;101035.00;5056106;28;20240;-87
2022/09/06 04:31:06;;;;;;;7.17;6.50;;;;;;;17.46;65.35;101035.13;5055498;28;20206;-86
2022/09/06 04:33:34;;;;;;;7.73;7.03;;;;;;;17.44;65.14;101034.41;5057875;28;20573;-86
2022/09/06 04:36:03;;;;;;;7.30;6.60;;;;;;;17.42;65.16;101028.31;5056739;28;20751;-85
2022/09/06 04:38:34;;;;;;;7.33;6.30;;;;;;;17.40;65.19;101016.81;5052295;28;20249;-85
2022/09/06 04:41:01;;;;;;;7.50;6.00;;;;;;;17.39;65.11;101012.41;5051228;28;20558;-87
2022/09/06 04:43:27;;;;;;;7.53;6.83;;;;;;;17.39;65.04;101015.09;5058520;28;20688;-86
2022/09/06 04:45:54;;;;;;;7.43;6.73;;;;;;;17.38;64.96;101012.56;5050948;28;20895;-86
2022/09/06 04:48:22;;;;;;;7.33;6.70;;;;;;;17.37;65.02;101016.25;5049623;28;20224;-85
2022/09/06 04:50:48;;;;;;;6.93;6.03;;;;;;;17.35;65.00;101013.69;5053428;28;20212;-85
2022/09/06 04:53:15;;;;;;;7.00;6.40;;;;;;;17.32;64.88;101020.19;5054744;28;20215;-85
2022/09/06 04:55:41;;;;;;;7.87;6.60;;;;;;;17.30;64.72;101016.75;5050056;28;20232;-86
2022/09/06 04:58:08;;;;;;;7.27;6.57;;;;;;;17.28;64.74;101016.03;5052965;28;20209;-86
2022/09/06 05:00:35;;;;;;;6.97;6.37;;;;;;;17.27;64.79;101011.63;5051464;28;20229;-86
2022/09/06 05:03:01;;;;;;;7.37;6.07;;;;;;;17.27;64.73;101017.00;5055378;28;20223;-86
2022/09/06 05:05:36;;;;;;;6.43;5.93;;;;;;;17.24;64.70;101003.81;5052771;28;20217;-86
2022/09/06 05:08:03;;;;;;;7.97;6.23;;;;;;;17.25;64.63;101002.84;5053394;28;20223;-86
2022/09/06 05:10:30;;;;;;;6.60;6.00;;;;;;;17.23;64.45;101009.31;5053228;28;20228;-86
2022/09/06 05:12:56;;;;;;;6.87;6.27;;;;;;;17.21;64.59;101020.22;5048719;28;20290;-86
2022/09/06 05:15:23;;;;;;;7.30;6.63;;;;;;;17.22;64.53;101023.78;5048127;28;20622;-85
2022/09/06 05:17:50;;;;;;;6.70;6.00;;;;;;;17.19;64.39;101013.28;5052521;28;20203;-85
2022/09/06 05:20:17;;;;;;;6.10;5.63;;;;;;;17.18;64.48;101015.13;5050676;28;20212;-85
2022/09/06 05:22:51;;;;;;;6.70;6.10;;;;;;;17.14;64.62;101008.28;5055573;28;20214;-86
2022/09/06 05:25:18;;;;;;;6.70;5.83;;;;;;;17.14;64.69;101012.81;5049287;28;20217;-86
2022/09/06 05:27:44;;;;;;;7.20;6.13;;;;;;;17.14;64.53;101021.75;5049449;28;20235;-85
2022/09/06 05:30:12;;;;;;;6.30;5.70;;;;;;;17.13;64.79;101020.03;5048198;28;20635;-85
2022/09/06 05:32:39;;;;;;;7.10;6.40;;;;;;;17.12;64.57;101031.78;5045721;28;20202;-86
2022/09/06 05:35:05;;;;;;;7.13;6.37;;;;;;;17.12;64.48;101029.09;5047694;28;20207;-86
2022/09/06 05:37:32;;;;;;;10.50;6.97;;;;;;;17.12;64.52;101029.09;5052522;28;20215;-85
2022/09/06 05:40:00;;;;;;;8.27;6.40;;;;;;;17.13;65.07;101027.25;5053466;28;20249;-86
2022/09/06 05:42:27;;;;;;;8.07;6.33;;;;;;;17.11;65.22;101026.53;5050093;28;20296;-86
2022/09/06 05:44:53;;;;;;;7.17;6.50;;;;;;;17.09;65.47;101021.28;5047924;28;20577;-86
2022/09/06 05:47:20;;;;;;;7.50;6.80;;;;;;;17.08;65.76;101016.03;5049456;28;20605;-85
2022/09/06 05:49:46;;;;;;;7.23;6.40;;;;;;;17.07;66.10;101023.22;5049614;28;20232;-85
2022/09/06 05:52:13;;;;;;;6.63;6.03;;;;;;;17.05;66.30;101021.66;5054208;28;20209;-86
2022/09/06 05:54:39;;;;;;;7.70;7.00;;;;;;;17.04;66.50;101019.94;5052342;28;20383;-85
2022/09/06 05:57:07;;;;;;;7.10;6.40;;;;;;;17.01;66.53;101031.84;5049396;28;20697;-86
2022/09/06 05:59:34;;;;;;;6.57;6.07;;;;;;;16.96;66.23;101017.91;5054503;28;20223;-85
2022/09/06 06:02:00;;;;;;;7.03;6.33;;;;;;;16.91;66.37;101009.38;5054746;28;20195;-85
2022/09/06 06:04:27;;;;;;;7.27;6.67;;;;;;;16.89;66.33;101014.03;5052567;28;20207;-86
2022/09/06 06:06:53;;;;;;;6.33;5.73;;;;;;;16.85;66.35;101010.72;5050879;28;20656;-86
2022/09/06 06:09:20;;;;;;;7.43;6.67;;;;;;;16.86;66.26;101019.66;5051059;28;20224;-86
2022/09/06 06:11:46;;;;;;;7.63;6.20;;;;;;;16.84;66.46;101022.47;5048836;28;20224;-85
2022/09/06 06:14:15;;;;;;;7.00;6.30;;;;;;;16.83;66.25;101018.09;5049049;28;20292;-86
2022/09/06 06:16:41;;;;;;;6.40;5.80;;;;;;;16.82;66.12;101027.16;5048596;28;20589;-85
2022/09/06 06:19:08;;;;;;;7.50;6.80;;;;;;;16.83;66.20;101030.69;5048222;28;20223;-85
2022/09/06 06:21:37;;;;;;;8.93;7.17;;;;;;;16.85;66.28;101047.53;5043418;28;20208;-86
2022/09/06 06:24:05;;;;;;;7.53;6.17;;;;;;;16.85;66.12;101039.47;5049196;28;20265;-86
2022/09/06 06:26:34;;;;;;;6.83;6.20;;;;;;;16.86;66.26;101046.56;5048848;28;20211;-85
2022/09/06 06:29:01;;;;;;;7.37;6.60;;;;;;;16.88;66.09;101052.66;5048419;28;20234;-85
2022/09/06 06:31:30;;;;;;;7.37;6.17;;;;;;;16.89;65.96;101040.94;5049100;28;20256;-85
2022/09/06 06:33:57;;;;;;;7.40;6.70;;;;;;;16.89;65.79;101044.47;5046921;28;20233;-85
2022/09/06 06:36:25;;;;;;;6.67;6.13;;;;;;;16.92;65.89;101054.97;5049067;28;20216;-85
2022/09/06 06:38:53;;;;;;;7.10;6.40;;;;;;;16.94;66.17;101052.16;5051226;28;20623;-86
2022/09/06 06:41:22;;;;;;;7.43;6.73;;;;;;;16.97;65.87;101065.38;5049507;28;20353;-85
2022/09/06 06:43:51;;;;;;;9.00;6.57;;;;;;;16.99;65.71;101068.78;5050208;28;20735;-86
2022/09/06 06:46:18;;;;;;;7.07;6.40;;;;;;;17.02;65.62;101068.50;5042332;28;20216;-86
2022/09/06 06:48:47;;;;;;;7.23;6.10;;;;;;;17.04;65.75;101061.16;5045794;28;20251;-86
2022/09/06 06:51:15;;;;;;;8.20;6.60;;;;;;;17.05;65.54;101060.19;5058340;28;20224;-86
2022/09/06 06:53:42;;;;;;;7.27;6.63;;;;;;;17.07;65.46;101060.91;5050098;28;20203;-86
2022/09/06 06:56:17;;;;;;;6.27;5.67;;;;;;;17.10;65.42;101066.03;5049814;28;20323;-86
2022/09/06 06:58:44;;;;;;;7.10;6.33;;;;;;;17.11;65.14;101065.06;5051397;28;20223;-86
2022/09/06 07:01:12;;;;;;;7.00;6.37;;;;;;;17.15;65.08;101065.66;5049539;28;20201;-86
2022/09/06 07:03:39;;;;;;;6.27;5.63;;;;;;;17.18;65.35;101068.97;5048923;28;20213;-87
2022/09/06 07:06:08;;;;;;;6.43;5.60;;;;;;;17.21;64.97;101076.75;5050694;28;20206;-85
2022/09/06 07:08:36;;;;;;;6.97;6.33;;;;;;;17.24;64.87;101067.56;5050143;28;20615;-86
2022/09/06 07:11:03;;;;;;;7.10;6.43;;;;;;;17.28;64.88;101061.78;5049435;28;20672;-85
2022/09/06 07:13:30;;;;;;;6.77;6.17;;;;;;;17.32;64.57;101065.09;5050739;28;20208;-85
2022/09/06 07:16:07;;;;;;;7.07;6.13;;;;;;;17.35;64.57;101071.06;5049171;28;20212;-86
2022/09/06 07:18:34;;;;;;;6.90;6.20;;;;;;;17.39;64.27;101079.72;5047588;28;20246;-85
2022/09/06 07:21:00;;;;;;;6.83;5.50;;;;;;;17.41;64.08;101083.13;5047651;28;20567;-86
2022/09/06 07:23:28;;;;;;;6.63;5.97;;;;;;;17.45;63.93;101075.66;5052351;28;20215;-86
2022/09/06 07:25:55;;;;;;;7.17;5.90;;;;;;;17.47;63.59;101065.63;5052885;28;20216;-85
2022/09/06 07:28:22;;;;;;;6.73;5.53;;;;;;;17.51;63.56;101064.38;5044206;28;20215;-87
2022/09/06 07:30:54;;;;;;;6.63;6.00;;;;;;;17.54;63.56;101062.28;5049071;28;20292;-86
2022/09/06 07:33:20;;;;;;;7.43;6.10;;;;;;;17.56;63.32;101072.88;5047759;28;20206;-86
2022/09/06 07:35:55;;;;;;;6.73;6.17;;;;;;;17.59;63.14;101068.09;5051747;28;20691;-86
2022/09/06 07:38:22;;;;;;;6.30;5.70;;;;;;;17.64;63.05;101073.13;5048798;28;20555;-87
2022/09/06 07:40:55;;;;;;;6.17;5.37;;;;;;;17.67;62.95;101067.47;5053035;28;20207;-86
2022/09/06 07:43:21;;;;;;;6.70;6.10;;;;;;;17.71;62.82;101063.53;5051996;28;20208;-86
2022/09/06 07:45:48;;;;;;;6.40;5.73;;;;;;;17.74;62.57;101071.34;5052750;28;20587;-86
2022/09/06 07:48:14;;;;;;;6.63;5.77;;;;;;;17.77;62.50;101072.91;5050264;28;20206;-86
2022/09/06 07:50:41;;;;;;;6.57;5.97;;;;;;;17.79;62.28;101082.56;5052370;28;20284;-86
2022/09/06 07:53:09;;;;;;;6.20;5.60;;;;;;;17.83;61.94;101086.72;5053752;28;20212;-86
2022/09/06 07:55:35;;;;;;;6.10;5.50;;;;;;;17.87;62.23;101076.53;5056194;28;20206;-85
2022/09/06 07:58:03;;;;;;;6.13;5.60;;;;;;;17.93;62.13;101068.75;5054408;28;20642;-86
2022/09/06 08:00:30;;;;;;;6.30;5.73;;;;;;;17.95;62.01;101058.69;5054959;28;20232;-86
2022/09/06 08:02:57;;;;;;;6.67;6.07;;;;;;;17.99;61.94;101068.22;5052109;28;20215;-84
2022/09/06 08:05:23;;;;;;;6.63;6.13;;;;;;;18.03;61.96;101074.19;5048359;28;20214;-85
2022/09/06 08:07:50;;;;;;;6.67;6.07;;;;;;;18.08;62.03;101082.75;5051802;28;20225;-86
2022/09/06 08:10:17;;;;;;;6.70;5.97;;;;;;;18.12;61.66;101081.47;5051637;28;20596;-86
2022/09/06 08:12:43;;;;;;;7.20;5.80;;;;;;;18.15;61.42;101085.75;5053299;28;20210;-86
2022/09/06 08:15:11;;;;;;;6.70;6.10;;;;;;;18.20;61.52;101086.19;5057556;28;20438;-85
2022/09/06 08:17:38;;;;;;;7.53;6.23;;;;;;;18.25;61.57;101083.94;5061261;28;20229;-88
2022/09/06 08:20:06;;;;;;;6.47;5.90;;;;;;;18.28;61.42;101081.81;5054402;28;20214;-85
2022/09/06 08:22:33;;;;;;;7.47;5.73;;;;;;;18.34;61.37;101075.03;5051916;28;20210;-85
2022/09/06 08:24:59;;;;;;;6.80;5.90;;;;;;;18.48;61.87;101074.63;5057291;28;20215;-86
2022/09/06 08:27:27;;;;;;;6.47;5.97;;;;;;;18.67;61.75;101076.56;5051830;28;20207;-86
2022/09/06 08:29:53;;;;;;;6.67;5.67;;;;;;;18.83;61.06;101070.63;5052367;28;20253;-86
2022/09/06 08:32:21;;;;;;;6.70;6.20;;;;;;;18.98;60.46;101069.25;5051522;28;20244;-85
2022/09/06 08:34:48;;;;;;;8.27;6.50;;;;;;;19.06;59.71;101067.53;5052167;28;20213;-85
2022/09/06 08:37:15;;;;;;;7.70;6.93;;;;;;;19.18;59.65;101068.22;5051228;28;20258;-86
2022/09/06 08:39:41;;;;;;;8.00;5.90;;;;;;;19.31;59.39;101071.50;5050379;28;20224;-85
2022/09/06 08:42:08;;;;;;;7.30;5.87;;;;;;;19.46;59.39;101071.06;5050921;28;20295;-84
2022/09/06 08:44:39;;;;;;;6.83;6.00;;;;;;;19.64;59.49;101062.13;5050113;28;20216;-86
2022/09/06 08:47:08;;;;;;;6.70;6.10;;;;;;;19.82;58.11;101061.34;5051855;28;20206;-86
2022/09/06 08:49:40;;;;;;;8.40;6.47;;;;;;;19.98;57.89;101053.47;5054383;28;20233;-86
2022/09/06 08:52:42;;;;;;;6.90;6.20;;;;;;;20.18;57.65;101040.72;5049530;28;20209;-85
2022/09/06 08:55:33;;;;;;;6.50;5.90;;;;;;;20.35;56.86;101038.06;5023599;28;20230;-85
2022/09/06 08:58:10;;;;;;;6.47;5.90;;;;;;;20.53;56.22;101029.19;5050268;28;20207;-87
2022/09/06 09:00:39;;;;;;;7.70;5.80;;;;;;;20.64;55.73;101032.50;5049518;28;20230;-85
2022/09/06 09:03:09;;;;;;;9.10;5.77;;;;;;;20.73;54.87;101038.88;5050800;28;20208;-86
2022/09/06 09:05:39;;;;;;;9.23;7.17;;;;;;;20.78;54.24;101025.75;5052629;28;20209;-86
2022/09/06 09:08:13;;;;;;;7.30;6.10;;;;;;;20.82;54.62;101028.97;5052393;28;20330;-86
2022/09/06 09:10:42;;;;;;;8.67;5.93;;;;;;;20.82;53.68;101046.06;5050533;28;20230;-86
2022/09/06 09:13:19;;;;;;;7.77;5.70;;;;;;;20.80;53.52;101038.09;5050803;28;20250;-86
2022/09/06 09:15:46;;;;;;;10.32;6.07;;;;;;;20.89;54.50;101047.16;5045140;28;20214;-85
2022/09/06 09:18:16;;;;;;;8.23;5.90;;;;;;;20.99;53.81;101030.81;5050368;28;20581;-86
2022/09/06 09:20:44;;;;;;;7.97;5.90;;;;;;;21.10;53.77;101039.59;5051150;28;20211;-86
2022/09/06 09:23:10;;;;;;;6.60;5.40;;;;;;;21.23;53.40;101041.06;5049945;28;20202;-85
2022/09/06 09:25:39;;;;;;;6.67;5.37;;;;;;;21.32;53.06;101034.69;5056435;28;20215;-88
2022/09/06 09:28:14;;;;;;;7.63;5.63;;;;;;;21.43;52.86;101029.03;5049813;28;20633;-86
2022/09/06 09:30:49;;;;;;;9.65;6.35;;;;;;;21.51;52.16;101022.81;5044035;28;20582;-87
2022/09/06 09:33:24;;;;;;;6.80;5.18;;;;;;;21.63;52.36;101024.28;5049690;28;20226;-85
2022/09/06 09:35:53;;;;;;;7.68;5.13;;;;;;;21.75;51.99;101012.13;5050105;28;20212;-87
2022/09/06 09:38:23;;;;;;;7.47;5.32;;;;;;;21.80;51.87;101009.81;5048855;28;20215;-86
2022/09/06 09:40:51;;;;;;;7.38;5.18;;;;;;;21.85;51.69;101010.19;5049929;28;20212;-87
2022/09/06 09:43:21;;;;;;;5.68;5.15;;;;;;;21.86;51.45;100998.28;5049015;28;20611;-86
2022/09/06 09:46:08;;;;;;;9.57;5.90;;;;;;;21.92;51.66;100994.94;5050435;28;20217;-85
2022/09/06 09:48:36;;;;;;;8.73;5.38;;;;;;;22.01;51.50;100990.44;5042980;28;20232;-87
2022/09/06 09:51:18;;;;;;;7.78;5.40;;;;;;;22.14;51.22;100988.97;5044849;28;20225;-86
2022/09/06 09:53:51;;;;;;;6.20;4.97;;;;;;;22.26;50.70;100981.38;5049502;28;20212;-86
2022/09/06 09:56:25;;;;;;;7.93;5.65;;;;;;;22.39;50.35;100980.94;5049400;28;20204;-86
2022/09/06 09:58:54;;;;;;;6.03;5.18;;;;;;;22.50;49.85;100978.75;5049397;28;20225;-87
2022/09/06 10:01:24;;;;;;;5.43;4.88;;;;;;;22.59;49.48;100984.16;5049371;28;20202;-87
2022/09/06 10:03:52;;;;;;;6.30;5.28;;;;;;;22.61;49.16;100983.00;5048525;28;20231;-87
2022/09/06 10:06:26;;;;;;;5.55;4.82;;;;;;;22.63;49.21;100983.69;5049081;28;20674;-86
2022/09/06 10:08:53;;;;;;;7.97;5.15;;;;;;;22.66;48.90;100982.50;5049025;28;20270;-87
2022/09/06 10:11:38;;;;;;;7.57;5.13;;;;;;;22.70;49.18;100982.00;5049691;28;20225;-86
2022/09/06 10:14:11;;;;;;;7.65;4.90;;;;;;;22.73;48.86;100980.81;5048753;28;20209;-85
2022/09/06 10:16:44;;;;;;;5.82;4.97;;;;;;;22.72;48.59;100979.13;5050470;28;20201;-86
2022/09/06 10:19:37;;;;;;;6.20;5.15;;;;;;;22.67;48.68;100968.75;5049683;28;20221;-86
2022/09/06 10:22:29;;;;;;;6.95;4.97;;;;;;;22.66;49.02;100968.91;5048095;28;20267;-86
2022/09/06 10:25:21;;;;;;;6.93;5.40;;;;;;;22.65;49.17;100968.06;5043990;28;20213;-86
2022/09/06 10:28:02;;;;;;;5.82;5.00;;;;;;;22.66;49.18;100972.47;5047924;28;20524;-86
2022/09/06 10:30:32;;;;;;;7.47;5.20;;;;;;;22.70;49.50;100998.28;5049384;28;20221;-86
2022/09/06 10:33:05;;;;;;;7.38;5.22;;;;;;;22.70;49.26;100978.44;5052744;28;20211;-86
2022/09/06 10:35:36;;;;;;;7.13;5.50;;;;;;;22.70;49.03;100976.56;5052849;28;20225;-86
2022/09/06 10:38:16;;;;;;;8.15;5.32;;;;;;;22.67;48.74;100970.63;5049890;28;20660;-86
2022/09/06 10:40:56;;;;;;;6.97;5.18;;;;;;;22.64;49.18;100963.66;5050502;28;20217;-86
2022/09/06 10:43:26;;;;;;;5.90;5.07;;;;;;;22.63;49.51;100958.38;5052517;28;20205;-85
2022/09/06 10:45:58;;;;;;;8.23;5.15;;;;;;;22.63;49.41;100966.53;5057766;28;20203;-85
2022/09/06 10:48:29;;;;;;;7.50;4.93;;;;;;;22.64;49.65;100968.22;5046597;28;20202;-85
2022/09/06 10:51:00;;;;;;;7.22;5.70;;;;;;;22.65;49.38;100970.78;5047968;28;20236;-86
2022/09/06 10:53:37;;;;;;;11.68;5.47;;;;;;;22.72;49.44;100960.97;5048956;28;20405;-86
2022/09/06 10:56:10;;;;;;;7.60;4.90;;;;;;;22.81;48.93;100964.56;5048950;28;20205;-87
2022/09/06 10:58:45;;;;;;;6.63;5.47;;;;;;;22.97;49.63;100961.00;5049433;28;20233;-86
2022/09/06 11:01:23;;;;;;;7.00;5.20;;;;;;;23.10;49.24;100953.19;5051987;28;20188;-86
2022/09/06 11:03:51;;;;;;;6.75;5.45;;;;;;;23.23;48.72;100952.66;5047394;28;20201;-87
2022/09/06 11:06:23;;;;;;;7.88;4.97;;;;;;;23.32;48.70;100943.47;5051627;28;20204;-86
2022/09/06 11:08:57;;;;;;;9.05;5.32;;;;;;;23.47;48.17;100939.84;5048635;28;20542;-86
2022/09/06 11:11:34;;;;;;;6.43;5.32;;;;;;;23.58;47.92;100938.69;5047796;28;20217;-86
2022/09/06 11:14:04;;;;;;;5.28;4.78;;;;;;;23.68;47.21;100941.19;5051540;28;20240;-86
2022/09/06 11:16:38;;;;;;;7.32;5.20;;;;;;;23.77;47.20;100938.28;5069775;28;20204;-86
2022/09/06 11:19:10;;;;;;;6.35;4.88;;;;;;;23.86;46.70;100936.38;5056963;28;20314;-85
2022/09/06 11:22:04;;;;;;;5.00;4.53;;;;;;;23.91;46.81;100933.97;5064783;28;20209;-86
2022/09/06 11:24:46;;;;;;;5.88;5.00;;;;;;;24.00;46.47;100932.94;5051914;28;20221;-84
2022/09/06 11:27:23;;;;;;;7.20;4.75;;;;;;;24.06;46.08;100934.06;5052172;28;20488;-87
2022/09/06 11:29:55;;;;;;;6.30;4.80;;;;;;;24.14;46.47;100931.31;5056034;28;20229;-88
2022/09/06 11:32:31;;;;;;;6.53;5.38;;;;;;;24.20;46.01;100933.31;5062304;28;20295;-85
2022/09/06 11:35:06;;;;;;;7.00;4.90;;;;;;;24.20;46.17;100923.28;5061179;28;20184;-86
2022/09/06 11:37:38;;;;;;;5.85;4.80;;;;;;;24.26;46.24;100910.00;5059519;28;20243;-86